sensor_id;sensor_type;location;lat;lon;timestamp;P1;durP1;ratioP1;P2;durP2;ratioP2
15516;SDS011;7860;52.030;5.572;2023-11-21T00:01:02;43.88;;;19.70;;
15516;SDS011;7860;52.030;5.572;2023-11-21T00:01:36;46.89;;;20.73;;
15516;SDS011;7860;52.030;5.572;2023-11-21T00:02:37;42.74;;;21.24;;
15516;SDS011;7860;52.030;5.572;2023-11-21T00:03:36;48.33;;;21.31;;
15516;SDS011;7860;52.030;5.572;2023-11-21T00:04:37;44.60;;;20.51;;
15516;SDS011;7860;52.030;5.572;2023-11-21T00:05:37;50.84;;;20.53;;
15516;SDS011;7860;52.030;5.572;2023-11-21T00:06:38;48.14;;;22.27;;
15516;SDS011;7860;52.030;5.572;2023-11-21T00:07:38;48.45;;;20.76;;
15516;SDS011;7860;52.030;5.572;2023-11-21T00:08:38;46.18;;;20.58;;
15516;SDS011;7860;52.030;5.572;2023-11-21T00:09:38;47.14;;;21.31;;
15516;SDS011;7860;52.030;5.572;2023-11-21T00:10:38;42.31;;;19.08;;
15516;SDS011;7860;52.030;5.572;2023-11-21T00:11:38;45.38;;;19.59;;
15516;SDS011;7860;52.030;5.572;2023-11-21T00:12:38;40.94;;;19.24;;
15516;SDS011;7860;52.030;5.572;2023-11-21T00:13:39;47.10;;;20.59;;
15516;SDS011;7860;52.030;5.572;2023-11-21T00:14:39;47.24;;;20.72;;
15516;SDS011;7860;52.030;5.572;2023-11-21T00:15:39;42.24;;;19.15;;
15516;SDS011;7860;52.030;5.572;2023-11-21T00:16:39;43.31;;;19.39;;
15516;SDS011;7860;52.030;5.572;2023-11-21T00:17:39;48.88;;;20.52;;
15516;SDS011;7860;52.030;5.572;2023-11-21T00:18:39;44.59;;;20.46;;
15516;SDS011;7860;52.030;5.572;2023-11-21T00:19:39;52.05;;;21.86;;
15516;SDS011;7860;52.030;5.572;2023-11-21T00:20:39;49.19;;;20.77;;
15516;SDS011;7860;52.030;5.572;2023-11-21T00:21:39;40.95;;;18.17;;
15516;SDS011;7860;52.030;5.572;2023-11-21T00:22:40;47.23;;;20.41;;
15516;SDS011;7860;52.030;5.572;2023-11-21T00:23:40;40.29;;;19.24;;
15516;SDS011;7860;52.030;5.572;2023-11-21T00:24:41;44.04;;;20.76;;
15516;SDS011;7860;52.030;5.572;2023-11-21T00:25:41;44.43;;;20.12;;
15516;SDS011;7860;52.030;5.572;2023-11-21T00:26:41;48.85;;;21.05;;
15516;SDS011;7860;52.030;5.572;2023-11-21T00:27:41;45.26;;;19.71;;
15516;SDS011;7860;52.030;5.572;2023-11-21T00:28:41;48.68;;;18.29;;
15516;SDS011;7860;52.030;5.572;2023-11-21T00:29:41;48.77;;;20.14;;
15516;SDS011;7860;52.030;5.572;2023-11-21T00:30:41;40.60;;;18.83;;
15516;SDS011;7860;52.030;5.572;2023-11-21T00:31:41;44.03;;;18.41;;
15516;SDS011;7860;52.030;5.572;2023-11-21T00:32:41;40.75;;;18.11;;
15516;SDS011;7860;52.030;5.572;2023-11-21T00:33:41;35.18;;;15.42;;
15516;SDS011;7860;52.030;5.572;2023-11-21T00:34:41;42.96;;;17.57;;
15516;SDS011;7860;52.030;5.572;2023-11-21T00:35:41;36.25;;;16.99;;
15516;SDS011;7860;52.030;5.572;2023-11-21T00:36:41;43.96;;;18.05;;
15516;SDS011;7860;52.030;5.572;2023-11-21T00:37:41;41.96;;;18.20;;
15516;SDS011;7860;52.030;5.572;2023-11-21T00:38:41;44.36;;;17.52;;
15516;SDS011;7860;52.030;5.572;2023-11-21T00:39:41;35.61;;;16.40;;
15516;SDS011;7860;52.030;5.572;2023-11-21T00:40:41;41.85;;;17.85;;
15516;SDS011;7860;52.030;5.572;2023-11-21T00:41:41;45.72;;;18.80;;
15516;SDS011;7860;52.030;5.572;2023-11-21T00:42:41;47.98;;;19.04;;
15516;SDS011;7860;52.030;5.572;2023-11-21T00:43:41;48.69;;;19.19;;
15516;SDS011;7860;52.030;5.572;2023-11-21T00:44:41;44.06;;;19.11;;
15516;SDS011;7860;52.030;5.572;2023-11-21T00:45:41;53.80;;;20.58;;
15516;SDS011;7860;52.030;5.572;2023-11-21T00:46:42;41.18;;;17.40;;
15516;SDS011;7860;52.030;5.572;2023-11-21T00:47:42;41.40;;;18.22;;
15516;SDS011;7860;52.030;5.572;2023-11-21T00:48:42;45.43;;;18.76;;
15516;SDS011;7860;52.030;5.572;2023-11-21T00:49:43;47.98;;;19.02;;
15516;SDS011;7860;52.030;5.572;2023-11-21T00:50:43;53.81;;;19.42;;
15516;SDS011;7860;52.030;5.572;2023-11-21T00:51:44;43.26;;;18.53;;
15516;SDS011;7860;52.030;5.572;2023-11-21T00:52:44;40.05;;;17.41;;
15516;SDS011;7860;52.030;5.572;2023-11-21T00:53:44;38.31;;;16.87;;
15516;SDS011;7860;52.030;5.572;2023-11-21T00:54:44;40.99;;;17.69;;
15516;SDS011;7860;52.030;5.572;2023-11-21T00:55:44;41.78;;;17.70;;
15516;SDS011;7860;52.030;5.572;2023-11-21T00:56:44;36.83;;;16.35;;
15516;SDS011;7860;52.030;5.572;2023-11-21T00:57:45;38.90;;;17.79;;
15516;SDS011;7860;52.030;5.572;2023-11-21T00:58:45;39.71;;;17.54;;
15516;SDS011;7860;52.030;5.572;2023-11-21T00:59:46;42.67;;;18.69;;
15516;SDS011;7860;52.030;5.572;2023-11-21T01:00:46;40.07;;;17.72;;
15516;SDS011;7860;52.030;5.572;2023-11-21T01:01:46;41.97;;;17.59;;
15516;SDS011;7860;52.030;5.572;2023-11-21T01:02:47;38.52;;;16.82;;
15516;SDS011;7860;52.030;5.572;2023-11-21T01:03:47;41.74;;;17.77;;
15516;SDS011;7860;52.030;5.572;2023-11-21T01:04:48;42.58;;;17.30;;
15516;SDS011;7860;52.030;5.572;2023-11-21T01:05:48;40.86;;;17.23;;
15516;SDS011;7860;52.030;5.572;2023-11-21T01:06:48;39.73;;;16.29;;
15516;SDS011;7860;52.030;5.572;2023-11-21T01:07:48;38.36;;;16.68;;
15516;SDS011;7860;52.030;5.572;2023-11-21T01:08:48;40.37;;;17.33;;
15516;SDS011;7860;52.030;5.572;2023-11-21T01:09:49;38.65;;;17.05;;
15516;SDS011;7860;52.030;5.572;2023-11-21T01:10:49;34.80;;;15.41;;
15516;SDS011;7860;52.030;5.572;2023-11-21T01:11:49;37.06;;;15.31;;
15516;SDS011;7860;52.030;5.572;2023-11-21T01:12:49;33.19;;;14.92;;
15516;SDS011;7860;52.030;5.572;2023-11-21T01:13:50;37.10;;;16.35;;
15516;SDS011;7860;52.030;5.572;2023-11-21T01:14:50;31.10;;;14.46;;
15516;SDS011;7860;52.030;5.572;2023-11-21T01:15:51;32.88;;;14.89;;
15516;SDS011;7860;52.030;5.572;2023-11-21T01:16:51;31.77;;;14.99;;
15516;SDS011;7860;52.030;5.572;2023-11-21T01:17:51;33.09;;;15.57;;
15516;SDS011;7860;52.030;5.572;2023-11-21T01:18:52;40.88;;;16.27;;
15516;SDS011;7860;52.030;5.572;2023-11-21T01:19:52;34.35;;;15.29;;
15516;SDS011;7860;52.030;5.572;2023-11-21T01:20:52;30.62;;;14.75;;
15516;SDS011;7860;52.030;5.572;2023-11-21T01:21:52;33.97;;;16.28;;
15516;SDS011;7860;52.030;5.572;2023-11-21T01:22:53;31.34;;;14.78;;
15516;SDS011;7860;52.030;5.572;2023-11-21T01:23:54;37.01;;;16.22;;
15516;SDS011;7860;52.030;5.572;2023-11-21T01:24:54;36.55;;;15.62;;
15516;SDS011;7860;52.030;5.572;2023-11-21T01:25:55;32.38;;;14.78;;
15516;SDS011;7860;52.030;5.572;2023-11-21T01:26:54;35.92;;;15.16;;
15516;SDS011;7860;52.030;5.572;2023-11-21T01:27:55;32.65;;;15.47;;
15516;SDS011;7860;52.030;5.572;2023-11-21T01:28:54;33.59;;;15.37;;
15516;SDS011;7860;52.030;5.572;2023-11-21T01:29:54;24.89;;;12.85;;
15516;SDS011;7860;52.030;5.572;2023-11-21T01:30:55;34.80;;;16.16;;
15516;SDS011;7860;52.030;5.572;2023-11-21T01:31:56;33.89;;;15.43;;
15516;SDS011;7860;52.030;5.572;2023-11-21T01:32:56;34.37;;;15.06;;
15516;SDS011;7860;52.030;5.572;2023-11-21T01:33:56;26.89;;;13.25;;
15516;SDS011;7860;52.030;5.572;2023-11-21T01:34:57;32.07;;;15.27;;
15516;SDS011;7860;52.030;5.572;2023-11-21T01:35:57;35.75;;;15.33;;
15516;SDS011;7860;52.030;5.572;2023-11-21T01:36:57;37.69;;;16.58;;
15516;SDS011;7860;52.030;5.572;2023-11-21T01:37:58;38.39;;;17.41;;
15516;SDS011;7860;52.030;5.572;2023-11-21T01:38:58;43.92;;;17.20;;
15516;SDS011;7860;52.030;5.572;2023-11-21T01:39:58;37.85;;;17.00;;
15516;SDS011;7860;52.030;5.572;2023-11-21T01:40:58;34.61;;;15.90;;
15516;SDS011;7860;52.030;5.572;2023-11-21T01:41:59;35.60;;;15.97;;
15516;SDS011;7860;52.030;5.572;2023-11-21T01:42:59;39.72;;;15.76;;
15516;SDS011;7860;52.030;5.572;2023-11-21T01:43:59;58.68;;;16.26;;
15516;SDS011;7860;52.030;5.572;2023-11-21T01:44:59;34.09;;;15.40;;
15516;SDS011;7860;52.030;5.572;2023-11-21T01:46:00;39.49;;;15.89;;
15516;SDS011;7860;52.030;5.572;2023-11-21T01:47:00;30.30;;;15.13;;
15516;SDS011;7860;52.030;5.572;2023-11-21T01:48:00;33.49;;;15.34;;
15516;SDS011;7860;52.030;5.572;2023-11-21T01:49:00;32.86;;;15.03;;
15516;SDS011;7860;52.030;5.572;2023-11-21T01:50:00;32.08;;;14.62;;
15516;SDS011;7860;52.030;5.572;2023-11-21T01:51:01;28.66;;;14.42;;
15516;SDS011;7860;52.030;5.572;2023-11-21T01:52:01;27.22;;;13.41;;
15516;SDS011;7860;52.030;5.572;2023-11-21T01:53:01;30.03;;;14.35;;
15516;SDS011;7860;52.030;5.572;2023-11-21T01:54:02;37.53;;;16.02;;
15516;SDS011;7860;52.030;5.572;2023-11-21T01:55:02;28.93;;;14.79;;
15516;SDS011;7860;52.030;5.572;2023-11-21T01:56:02;31.21;;;15.40;;
15516;SDS011;7860;52.030;5.572;2023-11-21T01:57:02;30.48;;;15.11;;
15516;SDS011;7860;52.030;5.572;2023-11-21T01:58:02;26.43;;;14.01;;
15516;SDS011;7860;52.030;5.572;2023-11-21T01:59:02;30.00;;;14.02;;
15516;SDS011;7860;52.030;5.572;2023-11-21T02:00:03;26.18;;;13.57;;
15516;SDS011;7860;52.030;5.572;2023-11-21T02:01:03;23.72;;;13.04;;
15516;SDS011;7860;52.030;5.572;2023-11-21T02:02:03;25.84;;;13.88;;
15516;SDS011;7860;52.030;5.572;2023-11-21T02:03:03;26.25;;;13.28;;
15516;SDS011;7860;52.030;5.572;2023-11-21T02:04:03;23.19;;;13.46;;
15516;SDS011;7860;52.030;5.572;2023-11-21T02:05:03;23.28;;;13.66;;
15516;SDS011;7860;52.030;5.572;2023-11-21T02:06:03;24.61;;;13.43;;
15516;SDS011;7860;52.030;5.572;2023-11-21T02:07:03;24.59;;;13.09;;
15516;SDS011;7860;52.030;5.572;2023-11-21T02:08:03;27.35;;;12.90;;
15516;SDS011;7860;52.030;5.572;2023-11-21T02:09:03;23.62;;;12.98;;
15516;SDS011;7860;52.030;5.572;2023-11-21T02:10:03;25.55;;;13.02;;
15516;SDS011;7860;52.030;5.572;2023-11-21T02:11:03;24.73;;;12.77;;
15516;SDS011;7860;52.030;5.572;2023-11-21T02:12:03;24.03;;;13.17;;
15516;SDS011;7860;52.030;5.572;2023-11-21T02:13:03;22.73;;;12.39;;
15516;SDS011;7860;52.030;5.572;2023-11-21T02:14:03;22.07;;;12.19;;
15516;SDS011;7860;52.030;5.572;2023-11-21T02:15:04;22.83;;;12.11;;
15516;SDS011;7860;52.030;5.572;2023-11-21T02:16:04;24.43;;;12.17;;
15516;SDS011;7860;52.030;5.572;2023-11-21T02:17:04;24.88;;;11.58;;
15516;SDS011;7860;52.030;5.572;2023-11-21T02:18:05;21.69;;;11.29;;
15516;SDS011;7860;52.030;5.572;2023-11-21T02:19:07;21.26;;;11.64;;
15516;SDS011;7860;52.030;5.572;2023-11-21T02:20:05;25.52;;;11.99;;
15516;SDS011;7860;52.030;5.572;2023-11-21T02:21:05;25.30;;;12.23;;
15516;SDS011;7860;52.030;5.572;2023-11-21T02:22:06;19.56;;;11.42;;
15516;SDS011;7860;52.030;5.572;2023-11-21T02:23:06;27.01;;;12.41;;
15516;SDS011;7860;52.030;5.572;2023-11-21T02:24:07;22.52;;;12.19;;
15516;SDS011;7860;52.030;5.572;2023-11-21T02:25:06;22.10;;;11.32;;
15516;SDS011;7860;52.030;5.572;2023-11-21T02:26:06;22.34;;;11.63;;
15516;SDS011;7860;52.030;5.572;2023-11-21T02:27:06;20.86;;;11.53;;
15516;SDS011;7860;52.030;5.572;2023-11-21T02:28:06;21.81;;;11.86;;
15516;SDS011;7860;52.030;5.572;2023-11-21T02:29:06;21.95;;;11.37;;
15516;SDS011;7860;52.030;5.572;2023-11-21T02:30:06;19.42;;;11.81;;
15516;SDS011;7860;52.030;5.572;2023-11-21T02:31:06;21.35;;;11.49;;
15516;SDS011;7860;52.030;5.572;2023-11-21T02:32:07;21.60;;;11.47;;
15516;SDS011;7860;52.030;5.572;2023-11-21T02:33:07;21.81;;;11.94;;
15516;SDS011;7860;52.030;5.572;2023-11-21T02:34:07;23.40;;;12.37;;
15516;SDS011;7860;52.030;5.572;2023-11-21T02:35:07;23.02;;;12.28;;
15516;SDS011;7860;52.030;5.572;2023-11-21T02:36:08;25.14;;;11.90;;
15516;SDS011;7860;52.030;5.572;2023-11-21T02:37:07;25.78;;;12.64;;
15516;SDS011;7860;52.030;5.572;2023-11-21T02:38:07;21.87;;;12.63;;
15516;SDS011;7860;52.030;5.572;2023-11-21T02:39:07;25.75;;;13.09;;
15516;SDS011;7860;52.030;5.572;2023-11-21T02:40:08;24.67;;;12.29;;
15516;SDS011;7860;52.030;5.572;2023-11-21T02:41:08;25.06;;;12.83;;
15516;SDS011;7860;52.030;5.572;2023-11-21T02:42:08;23.16;;;12.21;;
15516;SDS011;7860;52.030;5.572;2023-11-21T02:43:08;23.88;;;12.25;;
15516;SDS011;7860;52.030;5.572;2023-11-21T02:44:08;23.26;;;11.67;;
15516;SDS011;7860;52.030;5.572;2023-11-21T02:45:09;24.59;;;11.89;;
15516;SDS011;7860;52.030;5.572;2023-11-21T02:46:08;22.33;;;11.39;;
15516;SDS011;7860;52.030;5.572;2023-11-21T02:47:09;23.07;;;12.06;;
15516;SDS011;7860;52.030;5.572;2023-11-21T02:48:09;24.56;;;12.95;;
15516;SDS011;7860;52.030;5.572;2023-11-21T02:49:09;23.53;;;12.47;;
15516;SDS011;7860;52.030;5.572;2023-11-21T02:50:09;21.74;;;11.98;;
15516;SDS011;7860;52.030;5.572;2023-11-21T02:51:09;21.00;;;11.70;;
15516;SDS011;7860;52.030;5.572;2023-11-21T02:52:10;22.51;;;12.12;;
15516;SDS011;7860;52.030;5.572;2023-11-21T02:53:11;22.03;;;11.49;;
15516;SDS011;7860;52.030;5.572;2023-11-21T02:54:11;21.79;;;11.62;;
15516;SDS011;7860;52.030;5.572;2023-11-21T02:55:11;21.03;;;12.01;;
15516;SDS011;7860;52.030;5.572;2023-11-21T02:56:10;25.37;;;12.27;;
15516;SDS011;7860;52.030;5.572;2023-11-21T02:57:11;21.82;;;11.55;;
15516;SDS011;7860;52.030;5.572;2023-11-21T02:58:11;20.07;;;11.74;;
15516;SDS011;7860;52.030;5.572;2023-11-21T02:59:11;19.73;;;11.67;;
15516;SDS011;7860;52.030;5.572;2023-11-21T03:00:12;23.11;;;12.44;;
15516;SDS011;7860;52.030;5.572;2023-11-21T03:01:12;24.88;;;12.71;;
15516;SDS011;7860;52.030;5.572;2023-11-21T03:02:13;25.40;;;12.60;;
15516;SDS011;7860;52.030;5.572;2023-11-21T03:03:13;23.48;;;12.82;;
15516;SDS011;7860;52.030;5.572;2023-11-21T03:04:13;26.16;;;13.66;;
15516;SDS011;7860;52.030;5.572;2023-11-21T03:05:13;26.47;;;13.80;;
15516;SDS011;7860;52.030;5.572;2023-11-21T03:06:15;28.25;;;13.85;;
15516;SDS011;7860;52.030;5.572;2023-11-21T03:07:14;27.70;;;14.41;;
15516;SDS011;7860;52.030;5.572;2023-11-21T03:08:14;27.91;;;13.90;;
15516;SDS011;7860;52.030;5.572;2023-11-21T03:09:14;30.36;;;14.74;;
15516;SDS011;7860;52.030;5.572;2023-11-21T03:10:15;28.73;;;14.37;;
15516;SDS011;7860;52.030;5.572;2023-11-21T03:11:15;27.31;;;14.25;;
15516;SDS011;7860;52.030;5.572;2023-11-21T03:12:15;29.73;;;14.90;;
15516;SDS011;7860;52.030;5.572;2023-11-21T03:13:15;27.28;;;14.55;;
15516;SDS011;7860;52.030;5.572;2023-11-21T03:14:15;26.42;;;14.41;;
15516;SDS011;7860;52.030;5.572;2023-11-21T03:15:15;29.64;;;15.28;;
15516;SDS011;7860;52.030;5.572;2023-11-21T03:16:15;31.45;;;15.41;;
15516;SDS011;7860;52.030;5.572;2023-11-21T03:17:16;31.42;;;14.79;;
15516;SDS011;7860;52.030;5.572;2023-11-21T03:18:16;30.33;;;15.27;;
15516;SDS011;7860;52.030;5.572;2023-11-21T03:19:16;30.84;;;15.19;;
15516;SDS011;7860;52.030;5.572;2023-11-21T03:20:16;30.57;;;15.04;;
15516;SDS011;7860;52.030;5.572;2023-11-21T03:21:16;31.87;;;15.10;;
15516;SDS011;7860;52.030;5.572;2023-11-21T03:22:16;29.53;;;14.38;;
15516;SDS011;7860;52.030;5.572;2023-11-21T03:23:16;23.40;;;12.47;;
15516;SDS011;7860;52.030;5.572;2023-11-21T03:24:16;24.30;;;13.35;;
15516;SDS011;7860;52.030;5.572;2023-11-21T03:25:17;30.75;;;14.39;;
15516;SDS011;7860;52.030;5.572;2023-11-21T03:26:17;28.94;;;13.88;;
15516;SDS011;7860;52.030;5.572;2023-11-21T03:27:17;28.43;;;13.71;;
15516;SDS011;7860;52.030;5.572;2023-11-21T03:28:17;28.28;;;13.64;;
15516;SDS011;7860;52.030;5.572;2023-11-21T03:29:17;22.87;;;13.27;;
15516;SDS011;7860;52.030;5.572;2023-11-21T03:30:18;27.61;;;13.42;;
15516;SDS011;7860;52.030;5.572;2023-11-21T03:31:18;28.49;;;14.01;;
15516;SDS011;7860;52.030;5.572;2023-11-21T03:32:18;28.07;;;13.30;;
15516;SDS011;7860;52.030;5.572;2023-11-21T03:33:19;28.71;;;14.06;;
15516;SDS011;7860;52.030;5.572;2023-11-21T03:34:23;26.85;;;13.30;;
15516;SDS011;7860;52.030;5.572;2023-11-21T03:35:19;28.53;;;13.22;;
15516;SDS011;7860;52.030;5.572;2023-11-21T03:36:19;27.56;;;13.62;;
15516;SDS011;7860;52.030;5.572;2023-11-21T03:37:20;25.56;;;13.22;;
15516;SDS011;7860;52.030;5.572;2023-11-21T03:38:20;25.51;;;13.10;;
15516;SDS011;7860;52.030;5.572;2023-11-21T03:39:20;26.76;;;13.17;;
15516;SDS011;7860;52.030;5.572;2023-11-21T03:40:21;27.61;;;13.11;;
15516;SDS011;7860;52.030;5.572;2023-11-21T03:41:21;23.83;;;12.73;;
15516;SDS011;7860;52.030;5.572;2023-11-21T03:42:21;27.51;;;12.88;;
15516;SDS011;7860;52.030;5.572;2023-11-21T03:43:21;24.01;;;12.15;;
15516;SDS011;7860;52.030;5.572;2023-11-21T03:44:21;20.76;;;10.57;;
15516;SDS011;7860;52.030;5.572;2023-11-21T03:45:21;23.21;;;11.55;;
15516;SDS011;7860;52.030;5.572;2023-11-21T03:46:21;21.29;;;11.34;;
15516;SDS011;7860;52.030;5.572;2023-11-21T03:47:22;27.91;;;12.34;;
15516;SDS011;7860;52.030;5.572;2023-11-21T03:48:22;23.73;;;12.62;;
15516;SDS011;7860;52.030;5.572;2023-11-21T03:49:22;25.73;;;12.18;;
15516;SDS011;7860;52.030;5.572;2023-11-21T03:50:23;20.18;;;11.06;;
15516;SDS011;7860;52.030;5.572;2023-11-21T03:51:22;24.86;;;12.24;;
15516;SDS011;7860;52.030;5.572;2023-11-21T03:52:23;21.48;;;12.03;;
15516;SDS011;7860;52.030;5.572;2023-11-21T03:53:23;22.27;;;11.85;;
15516;SDS011;7860;52.030;5.572;2023-11-21T03:54:23;22.06;;;10.54;;
15516;SDS011;7860;52.030;5.572;2023-11-21T03:55:24;20.73;;;10.67;;
15516;SDS011;7860;52.030;5.572;2023-11-21T03:56:23;21.06;;;10.77;;
15516;SDS011;7860;52.030;5.572;2023-11-21T03:57:23;22.04;;;10.97;;
15516;SDS011;7860;52.030;5.572;2023-11-21T03:58:23;19.31;;;10.09;;
15516;SDS011;7860;52.030;5.572;2023-11-21T03:59:24;23.07;;;11.40;;
15516;SDS011;7860;52.030;5.572;2023-11-21T04:00:25;22.37;;;10.77;;
15516;SDS011;7860;52.030;5.572;2023-11-21T04:01:25;22.94;;;11.09;;
15516;SDS011;7860;52.030;5.572;2023-11-21T04:02:25;21.45;;;11.16;;
15516;SDS011;7860;52.030;5.572;2023-11-21T04:03:25;21.64;;;10.40;;
15516;SDS011;7860;52.030;5.572;2023-11-21T04:04:25;18.91;;;9.90;;
15516;SDS011;7860;52.030;5.572;2023-11-21T04:05:25;19.02;;;10.47;;
15516;SDS011;7860;52.030;5.572;2023-11-21T04:06:26;18.31;;;10.06;;
15516;SDS011;7860;52.030;5.572;2023-11-21T04:07:26;18.11;;;10.48;;
15516;SDS011;7860;52.030;5.572;2023-11-21T04:08:26;20.56;;;10.17;;
15516;SDS011;7860;52.030;5.572;2023-11-21T04:09:26;20.98;;;10.72;;
15516;SDS011;7860;52.030;5.572;2023-11-21T04:10:27;22.14;;;10.61;;
15516;SDS011;7860;52.030;5.572;2023-11-21T04:11:27;20.50;;;11.04;;
15516;SDS011;7860;52.030;5.572;2023-11-21T04:12:27;21.27;;;11.35;;
15516;SDS011;7860;52.030;5.572;2023-11-21T04:13:27;23.14;;;11.46;;
15516;SDS011;7860;52.030;5.572;2023-11-21T04:14:27;23.83;;;11.45;;
15516;SDS011;7860;52.030;5.572;2023-11-21T04:15:27;22.95;;;11.57;;
15516;SDS011;7860;52.030;5.572;2023-11-21T04:16:27;20.74;;;10.82;;
15516;SDS011;7860;52.030;5.572;2023-11-21T04:17:27;22.86;;;11.20;;
15516;SDS011;7860;52.030;5.572;2023-11-21T04:18:27;27.42;;;12.02;;
15516;SDS011;7860;52.030;5.572;2023-11-21T04:19:27;23.97;;;11.83;;
15516;SDS011;7860;52.030;5.572;2023-11-21T04:20:27;24.26;;;11.41;;
15516;SDS011;7860;52.030;5.572;2023-11-21T04:21:27;22.59;;;11.77;;
15516;SDS011;7860;52.030;5.572;2023-11-21T04:22:27;20.98;;;10.63;;
15516;SDS011;7860;52.030;5.572;2023-11-21T04:23:28;24.84;;;11.74;;
15516;SDS011;7860;52.030;5.572;2023-11-21T04:24:27;22.38;;;10.83;;
15516;SDS011;7860;52.030;5.572;2023-11-21T04:25:27;20.98;;;11.03;;
15516;SDS011;7860;52.030;5.572;2023-11-21T04:26:27;21.91;;;10.04;;
15516;SDS011;7860;52.030;5.572;2023-11-21T04:27:27;24.23;;;10.36;;
15516;SDS011;7860;52.030;5.572;2023-11-21T04:28:28;20.14;;;9.83;;
15516;SDS011;7860;52.030;5.572;2023-11-21T04:29:28;20.98;;;10.36;;
15516;SDS011;7860;52.030;5.572;2023-11-21T04:30:28;20.23;;;10.69;;
15516;SDS011;7860;52.030;5.572;2023-11-21T04:31:28;21.84;;;10.44;;
15516;SDS011;7860;52.030;5.572;2023-11-21T04:32:29;19.81;;;10.47;;
15516;SDS011;7860;52.030;5.572;2023-11-21T04:33:30;22.82;;;10.95;;
15516;SDS011;7860;52.030;5.572;2023-11-21T04:34:30;20.02;;;10.12;;
15516;SDS011;7860;52.030;5.572;2023-11-21T04:35:31;20.51;;;10.55;;
15516;SDS011;7860;52.030;5.572;2023-11-21T04:36:31;19.29;;;9.98;;
15516;SDS011;7860;52.030;5.572;2023-11-21T04:37:31;20.32;;;9.82;;
15516;SDS011;7860;52.030;5.572;2023-11-21T04:38:31;19.31;;;9.94;;
15516;SDS011;7860;52.030;5.572;2023-11-21T04:39:32;22.00;;;10.51;;
15516;SDS011;7860;52.030;5.572;2023-11-21T04:40:32;21.36;;;10.41;;
15516;SDS011;7860;52.030;5.572;2023-11-21T04:41:32;22.77;;;10.64;;
15516;SDS011;7860;52.030;5.572;2023-11-21T04:42:33;22.68;;;11.05;;
15516;SDS011;7860;52.030;5.572;2023-11-21T04:43:33;22.74;;;10.39;;
15516;SDS011;7860;52.030;5.572;2023-11-21T04:44:33;21.11;;;10.59;;
15516;SDS011;7860;52.030;5.572;2023-11-21T04:45:33;22.10;;;10.92;;
15516;SDS011;7860;52.030;5.572;2023-11-21T04:46:33;26.15;;;11.04;;
15516;SDS011;7860;52.030;5.572;2023-11-21T04:47:33;25.43;;;11.33;;
15516;SDS011;7860;52.030;5.572;2023-11-21T04:48:33;20.85;;;10.23;;
15516;SDS011;7860;52.030;5.572;2023-11-21T04:49:33;22.86;;;10.84;;
15516;SDS011;7860;52.030;5.572;2023-11-21T04:50:33;23.58;;;11.73;;
15516;SDS011;7860;52.030;5.572;2023-11-21T04:51:33;22.20;;;11.26;;
15516;SDS011;7860;52.030;5.572;2023-11-21T04:52:33;24.89;;;11.07;;
15516;SDS011;7860;52.030;5.572;2023-11-21T04:53:33;25.39;;;11.53;;
15516;SDS011;7860;52.030;5.572;2023-11-21T04:54:33;22.29;;;11.13;;
15516;SDS011;7860;52.030;5.572;2023-11-21T04:55:33;21.82;;;10.67;;
15516;SDS011;7860;52.030;5.572;2023-11-21T04:56:33;22.56;;;10.23;;
15516;SDS011;7860;52.030;5.572;2023-11-21T04:57:34;22.84;;;10.96;;
15516;SDS011;7860;52.030;5.572;2023-11-21T04:58:34;29.26;;;11.31;;
15516;SDS011;7860;52.030;5.572;2023-11-21T04:59:34;21.76;;;10.37;;
15516;SDS011;7860;52.030;5.572;2023-11-21T05:00:34;22.98;;;10.83;;
15516;SDS011;7860;52.030;5.572;2023-11-21T05:01:35;24.03;;;11.16;;
15516;SDS011;7860;52.030;5.572;2023-11-21T05:02:34;23.73;;;11.32;;
15516;SDS011;7860;52.030;5.572;2023-11-21T05:03:35;21.73;;;10.41;;
15516;SDS011;7860;52.030;5.572;2023-11-21T05:04:35;23.47;;;10.55;;
15516;SDS011;7860;52.030;5.572;2023-11-21T05:05:35;26.58;;;11.18;;
15516;SDS011;7860;52.030;5.572;2023-11-21T05:06:35;23.55;;;11.04;;
15516;SDS011;7860;52.030;5.572;2023-11-21T05:07:35;24.95;;;11.54;;
15516;SDS011;7860;52.030;5.572;2023-11-21T05:08:36;28.63;;;11.48;;
15516;SDS011;7860;52.030;5.572;2023-11-21T05:09:36;24.79;;;11.69;;
15516;SDS011;7860;52.030;5.572;2023-11-21T05:10:36;24.72;;;11.29;;
15516;SDS011;7860;52.030;5.572;2023-11-21T05:11:36;27.40;;;11.75;;
15516;SDS011;7860;52.030;5.572;2023-11-21T05:12:36;24.09;;;11.56;;
15516;SDS011;7860;52.030;5.572;2023-11-21T05:13:37;28.60;;;11.34;;
15516;SDS011;7860;52.030;5.572;2023-11-21T05:14:37;26.96;;;11.99;;
15516;SDS011;7860;52.030;5.572;2023-11-21T05:15:37;25.91;;;11.75;;
15516;SDS011;7860;52.030;5.572;2023-11-21T05:16:37;27.02;;;11.89;;
15516;SDS011;7860;52.030;5.572;2023-11-21T05:17:37;26.21;;;11.44;;
15516;SDS011;7860;52.030;5.572;2023-11-21T05:18:37;24.25;;;11.79;;
15516;SDS011;7860;52.030;5.572;2023-11-21T05:19:37;28.43;;;11.82;;
15516;SDS011;7860;52.030;5.572;2023-11-21T05:20:37;21.96;;;11.07;;
15516;SDS011;7860;52.030;5.572;2023-11-21T05:21:37;28.29;;;12.26;;
15516;SDS011;7860;52.030;5.572;2023-11-21T05:22:37;26.99;;;12.14;;
15516;SDS011;7860;52.030;5.572;2023-11-21T05:23:37;26.23;;;11.25;;
15516;SDS011;7860;52.030;5.572;2023-11-21T05:24:37;28.96;;;12.25;;
15516;SDS011;7860;52.030;5.572;2023-11-21T05:25:37;21.57;;;10.22;;
15516;SDS011;7860;52.030;5.572;2023-11-21T05:26:38;28.68;;;10.94;;
15516;SDS011;7860;52.030;5.572;2023-11-21T05:27:38;27.99;;;12.20;;
15516;SDS011;7860;52.030;5.572;2023-11-21T05:28:38;27.37;;;12.53;;
15516;SDS011;7860;52.030;5.572;2023-11-21T05:29:38;26.55;;;12.80;;
15516;SDS011;7860;52.030;5.572;2023-11-21T05:30:38;24.62;;;11.45;;
15516;SDS011;7860;52.030;5.572;2023-11-21T05:31:39;28.04;;;12.12;;
15516;SDS011;7860;52.030;5.572;2023-11-21T05:32:39;24.16;;;11.93;;
15516;SDS011;7860;52.030;5.572;2023-11-21T05:33:39;25.93;;;12.04;;
15516;SDS011;7860;52.030;5.572;2023-11-21T05:34:40;26.89;;;12.28;;
15516;SDS011;7860;52.030;5.572;2023-11-21T05:35:40;28.16;;;12.44;;
15516;SDS011;7860;52.030;5.572;2023-11-21T05:36:40;27.92;;;12.79;;
15516;SDS011;7860;52.030;5.572;2023-11-21T05:37:40;26.38;;;12.03;;
15516;SDS011;7860;52.030;5.572;2023-11-21T05:38:40;28.51;;;11.83;;
15516;SDS011;7860;52.030;5.572;2023-11-21T05:39:40;25.06;;;12.29;;
15516;SDS011;7860;52.030;5.572;2023-11-21T05:40:40;27.27;;;12.53;;
15516;SDS011;7860;52.030;5.572;2023-11-21T05:41:40;28.60;;;12.52;;
15516;SDS011;7860;52.030;5.572;2023-11-21T05:42:40;31.06;;;13.14;;
15516;SDS011;7860;52.030;5.572;2023-11-21T05:43:40;29.21;;;12.60;;
15516;SDS011;7860;52.030;5.572;2023-11-21T05:44:41;28.59;;;12.18;;
15516;SDS011;7860;52.030;5.572;2023-11-21T05:45:40;27.66;;;12.51;;
15516;SDS011;7860;52.030;5.572;2023-11-21T05:46:41;29.10;;;12.33;;
15516;SDS011;7860;52.030;5.572;2023-11-21T05:47:41;28.79;;;12.70;;
15516;SDS011;7860;52.030;5.572;2023-11-21T05:48:41;29.87;;;12.62;;
15516;SDS011;7860;52.030;5.572;2023-11-21T05:49:41;33.27;;;12.41;;
15516;SDS011;7860;52.030;5.572;2023-11-21T05:50:41;30.90;;;12.34;;
15516;SDS011;7860;52.030;5.572;2023-11-21T05:51:41;29.04;;;12.11;;
15516;SDS011;7860;52.030;5.572;2023-11-21T05:52:42;32.14;;;12.10;;
15516;SDS011;7860;52.030;5.572;2023-11-21T05:53:41;27.95;;;12.27;;
15516;SDS011;7860;52.030;5.572;2023-11-21T05:54:42;34.73;;;12.75;;
15516;SDS011;7860;52.030;5.572;2023-11-21T05:55:42;31.36;;;12.56;;
15516;SDS011;7860;52.030;5.572;2023-11-21T05:56:42;25.16;;;11.58;;
15516;SDS011;7860;52.030;5.572;2023-11-21T05:57:43;27.35;;;11.98;;